Time;durP1;ratioP1;P1;durP2;ratioP2;P2;SDS_P1;SDS_P2;PMS_P1;PMS_P2;Temp;Humidity;BMP_temperature;BMP_pressure;BME280_temperature;BME280_humidity;BME280_pressure;Samples;Min_cycle;Max_cycle;Signal;HPM_P1;HPM_P2
2022/08/09 00:02:39;;;;;;;3.40;2.30;;;;;;;20.21;52.76;101333.11;106317;1271;23985;-74
2022/08/09 00:05:17;;;;;;;3.00;2.10;;;;;;;20.16;52.99;101335.08;106274;1270;25908;-75
2022/08/09 00:08:09;;;;;;;4.10;2.00;;;;;;;20.17;53.36;101341.50;106478;1271;23942;-75
2022/08/09 00:10:58;;;;;;;7.20;2.10;;;;;;;20.11;53.45;101340.61;106255;1271;22737;-74
2022/08/09 00:13:26;;;;;;;4.60;2.10;;;;;;;20.10;53.55;101343.52;106213;1271;25300;-73
2022/08/09 00:15:57;;;;;;;4.80;2.40;;;;;;;20.08;53.67;101344.13;106382;1271;24510;-72
2022/08/09 00:18:30;;;;;;;4.10;2.10;;;;;;;20.05;53.82;101344.04;106326;1270;22694;-74
2022/08/09 00:21:06;;;;;;;7.70;2.90;;;;;;;20.03;54.05;101347.29;106517;1270;23602;-74
2022/08/09 00:23:36;;;;;;;4.50;2.30;;;;;;;20.02;54.13;101346.08;105956;1276;22752;-72
2022/08/09 00:26:27;;;;;;;4.50;2.30;;;;;;;19.99;54.27;101343.32;105920;1276;24512;-72
2022/08/09 00:29:02;;;;;;;4.00;2.60;;;;;;;19.96;54.51;101340.90;106018;1276;22474;-77
2022/08/09 00:31:38;;;;;;;5.40;2.40;;;;;;;19.91;54.47;101341.43;106013;1277;25258;-73
2022/08/09 00:34:25;;;;;;;5.30;1.80;;;;;;;19.88;54.52;101338.49;105848;1277;23926;-73
2022/08/09 00:36:52;;;;;;;4.90;2.50;;;;;;;19.86;54.52;101337.64;105832;1276;22526;-73
2022/08/09 00:39:19;;;;;;;5.70;2.40;;;;;;;19.84;54.64;101341.83;105353;1281;25336;-73
2022/08/09 00:42:06;;;;;;;3.80;2.60;;;;;;;19.79;54.69;101344.30;105644;1277;22560;-73
2022/08/09 00:44:54;;;;;;;5.70;2.50;;;;;;;19.75;54.78;101343.02;105826;1277;22571;-72
2022/08/09 00:47:22;;;;;;;3.70;2.10;;;;;;;19.72;54.87;101343.99;106026;1276;22541;-75
2022/08/09 00:49:52;;;;;;;4.60;2.20;;;;;;;19.70;54.97;101349.27;105629;1277;24356;-74
2022/08/09 00:52:23;;;;;;;4.10;2.30;;;;;;;19.68;55.00;101350.57;105765;1277;24313;-75
2022/08/09 00:54:59;;;;;;;;;;;;;;;19.64;55.08;101353.89;104518;1276;1646871;-74
2022/08/09 00:57:30;;;;;;;3.20;2.20;;;;;;;19.58;55.37;101357.85;105709;1277;22556;-74
2022/08/09 01:00:07;;;;;;;2.90;2.10;;;;;;;19.53;55.41;101356.21;105163;1282;22570;-82
2022/08/09 01:03:00;;;;;;;4.70;2.10;;;;;;;19.52;55.43;101357.13;105239;1281;22926;-73
2022/08/09 01:05:37;;;;;;;4.80;2.20;;;;;;;19.49;55.60;101354.55;105543;1278;22618;-73
2022/08/09 01:08:40;;;;;;;5.90;2.40;;;;;;;19.47;55.85;101353.73;105778;1276;22553;-73
2022/08/09 01:11:54;;;;;;;3.60;2.10;;;;;;;19.42;55.87;101360.29;105866;1276;25379;-74
2022/08/09 01:14:40;;;;;;;3.40;2.40;;;;;;;19.37;55.93;101354.02;105796;1279;23129;-74
2022/08/09 01:17:18;;;;;;;3.70;2.70;;;;;;;19.31;56.10;101349.75;105832;1277;22536;-75
2022/08/09 01:19:59;;;;;;;3.30;2.30;;;;;;;19.28;56.37;101356.77;106264;1271;25313;-72
2022/08/09 01:22:49;;;;;;;8.60;2.60;;;;;;;19.24;56.40;101356.20;106269;1270;24251;-72
2022/08/09 01:25:40;;;;;;;3.80;2.50;;;;;;;19.21;56.49;101353.45;106325;1270;25515;-74
2022/08/09 01:28:15;;;;;;;3.80;2.20;;;;;;;19.19;56.66;101353.65;106369;1271;22611;-73
2022/08/09 01:30:44;;;;;;;5.30;2.10;;;;;;;19.18;56.76;101356.20;106204;1271;25194;-73
2022/08/09 01:33:23;;;;;;;8.70;2.70;;;;;;;19.15;56.77;101355.73;106289;1271;24232;-78
2022/08/09 01:36:12;;;;;;;6.10;2.30;;;;;;;19.11;56.99;101351.77;106268;1271;22564;-79
2022/08/09 01:38:44;;;;;;;6.80;2.60;;;;;;;19.10;57.12;101354.81;106230;1271;24266;-76
2022/08/09 01:41:13;;;;;;;4.20;2.50;;;;;;;19.10;57.16;101351.23;106325;1271;22680;-76
2022/08/09 01:43:46;;;;;;;9.10;2.30;;;;;;;19.11;57.20;101354.78;106322;1270;22547;-75
2022/08/09 01:46:25;;;;;;;6.20;2.40;;;;;;;19.11;57.18;101354.06;106284;1270;22674;-75
2022/08/09 01:48:56;;;;;;;7.40;2.70;;;;;;;19.09;57.15;101354.30;106163;1272;25674;-74
2022/08/09 01:51:28;;;;;;;7.40;2.60;;;;;;;19.08;57.34;101356.65;106258;1271;22723;-76
2022/08/09 01:54:01;;;;;;;9.50;2.30;;;;;;;19.05;57.66;101359.94;106183;1271;24330;-74
2022/08/09 01:56:34;;;;;;;3.80;2.40;;;;;;;19.00;57.68;101361.16;105939;1276;25256;-74
2022/08/09 01:59:09;;;;;;;5.90;2.40;;;;;;;19.00;57.89;101363.64;105588;1276;23151;-72
2022/08/09 02:01:38;;;;;;;5.80;2.40;;;;;;;18.99;58.06;101364.02;105193;1282;22755;-75
2022/08/09 02:04:27;;;;;;;5.30;2.60;;;;;;;18.95;58.24;101363.25;105155;1282;22617;-73
2022/08/09 02:07:10;;;;;;;5.70;2.50;;;;;;;18.95;58.26;101366.66;105257;1282;22632;-76
2022/08/09 02:10:12;;;;;;;6.40;2.50;;;;;;;18.95;58.53;101364.69;105083;1282;22886;-77
2022/08/09 02:12:43;;;;;;;5.20;2.10;;;;;;;18.94;58.45;101365.05;105429;1282;23226;-74
2022/08/09 02:15:13;;;;;;;5.10;2.10;;;;;;;18.96;58.51;101367.86;106033;1274;22538;-75
2022/08/09 02:17:49;;;;;;;5.00;3.00;;;;;;;18.93;58.57;101362.44;106131;1277;22482;-75
2022/08/09 02:20:44;;;;;;;7.30;2.80;;;;;;;18.93;58.63;101366.68;106300;1271;26456;-79
2022/08/09 02:23:36;;;;;;;4.70;2.40;;;;;;;18.92;58.69;101364.76;106588;1271;22530;-75
2022/08/09 02:26:09;;;;;;;;;;;;;;;18.93;58.79;101366.34;106783;1271;23033;-75
2022/08/09 02:28:58;;;;;;;6.00;2.80;;;;;;;18.90;58.89;101368.91;106235;1271;25429;-77
2022/08/09 02:31:39;;;;;;;4.70;2.50;;;;;;;18.90;58.90;101372.32;106642;1271;25229;-75
2022/08/09 02:34:13;;;;;;;5.00;2.70;;;;;;;18.88;58.95;101367.20;107049;1271;24200;-81
2022/08/09 02:37:04;;;;;;;6.40;2.50;;;;;;;18.86;58.97;101369.23;106510;1271;25350;-74
2022/08/09 02:39:40;;;;;;;4.70;2.50;;;;;;;18.85;59.06;101370.14;106308;1271;24949;-74
2022/08/09 02:42:21;;;;;;;5.90;2.50;;;;;;;18.86;59.12;101368.16;106492;1271;24238;-76
2022/08/09 02:45:06;;;;;;;;;;;;;;;18.86;59.21;101371.36;106131;1271;25331;-75
2022/08/09 02:47:36;;;;;;;5.60;2.50;;;;;;;18.83;59.37;101369.84;106489;1271;23941;-74
2022/08/09 02:50:28;;;;;;;3.10;2.20;;;;;;;18.79;59.34;101374.05;106419;1271;22710;-72
2022/08/09 02:53:09;;;;;;;7.30;2.60;;;;;;;18.79;59.39;101373.16;106299;1271;24026;-75
2022/08/09 02:55:54;;;;;;;3.20;2.60;;;;;;;18.77;59.44;101376.77;106307;1271;25213;-75
2022/08/09 02:58:29;;;;;;;4.70;2.20;;;;;;;18.76;59.41;101378.24;106369;1271;22554;-74
2022/08/09 03:01:08;;;;;;;5.00;2.50;;;;;;;18.75;59.54;101378.08;106468;1271;22538;-75
2022/08/09 03:03:43;;;;;;;6.20;2.60;;;;;;;18.75;59.66;101375.59;106203;1271;22858;-74
2022/08/09 03:06:31;;;;;;;4.40;2.50;;;;;;;18.75;59.76;101380.04;106345;1271;25573;-73
2022/08/09 03:09:00;;;;;;;6.90;3.20;;;;;;;18.75;59.70;101378.42;106319;1271;22737;-76
2022/08/09 03:11:27;;;;;;;4.80;2.40;;;;;;;18.73;59.87;101383.48;106489;1271;24355;-76
2022/08/09 03:14:17;;;;;;;6.90;2.60;;;;;;;18.70;59.99;101378.75;106147;1271;22956;-74
2022/08/09 03:16:44;;;;;;;7.10;2.40;;;;;;;18.70;60.02;101383.56;106389;1271;23400;-74
2022/08/09 03:19:19;;;;;;;6.00;2.80;;;;;;;18.69;60.19;101382.34;106350;1271;23146;-74
2022/08/09 03:22:08;;;;;;;6.30;2.60;;;;;;;18.69;60.38;101380.58;106306;1271;22646;-75
2022/08/09 03:24:45;;;;;;;3.80;2.70;;;;;;;18.68;60.48;101383.98;106280;1270;22560;-78
2022/08/09 03:27:33;;;;;;;4.50;2.40;;;;;;;18.65;60.62;101381.93;106242;1271;22522;-74
2022/08/09 03:30:12;;;;;;;5.30;2.60;;;;;;;18.64;60.67;101383.38;106530;1271;22775;-77
2022/08/09 03:32:56;;;;;;;6.30;2.80;;;;;;;18.66;60.88;101381.72;106276;1271;26475;-76
2022/08/09 03:35:25;;;;;;;4.30;2.60;;;;;;;18.70;60.89;101380.17;106745;1271;25575;-77
2022/08/09 03:38:12;;;;;;;5.00;2.40;;;;;;;18.72;60.72;101380.31;106541;1271;22875;-73
2022/08/09 03:40:54;;;;;;;6.10;2.50;;;;;;;18.72;60.84;101378.70;106786;1271;25350;-73
2022/08/09 03:43:21;;;;;;;4.70;2.80;;;;;;;18.75;60.84;101378.46;106318;1271;25430;-74
2022/08/09 03:45:48;;;;;;;5.00;2.10;;;;;;;18.76;60.88;101384.13;106394;1270;22525;-73
2022/08/09 03:48:38;;;;;;;4.70;2.60;;;;;;;18.77;60.88;101381.60;106366;1271;25518;-73
2022/08/09 03:51:19;;;;;;;6.40;2.60;;;;;;;18.76;60.82;101383.41;106454;1271;25350;-76
2022/08/09 03:54:08;;;;;;;5.90;2.80;;;;;;;18.77;60.79;101381.23;106296;1270;22532;-76
2022/08/09 03:56:38;;;;;;;5.80;2.70;;;;;;;18.79;60.78;101387.80;106377;1271;24814;-74
2022/08/09 03:59:13;;;;;;;8.10;2.60;;;;;;;18.78;60.48;101382.99;106406;1271;23162;-72
2022/08/09 04:01:56;;;;;;;4.20;2.70;;;;;;;18.79;60.42;101385.09;106372;1271;25598;-75
2022/08/09 04:04:26;;;;;;;6.70;3.00;;;;;;;18.80;60.50;101392.23;106426;1271;22522;-75
2022/08/09 04:07:05;;;;;;;8.00;3.00;;;;;;;18.78;60.35;101392.09;106022;1277;25343;-76
2022/08/09 04:09:32;;;;;;;8.90;2.60;;;;;;;18.79;60.40;101393.50;105962;1277;22669;-75
2022/08/09 04:12:42;;;;;;;5.40;3.00;;;;;;;18.80;60.41;101397.73;105898;1276;25365;-71
2022/08/09 04:15:12;;;;;;;6.30;2.60;;;;;;;18.80;60.38;101397.21;106064;1274;22638;-75
2022/08/09 04:17:59;;;;;;;6.60;2.60;;;;;;;18.81;60.33;101397.52;106029;1277;22897;-75
2022/08/09 04:20:27;;;;;;;5.10;2.60;;;;;;;18.82;60.25;101396.98;105852;1277;24691;-78
2022/08/09 04:22:54;;;;;;;6.50;3.00;;;;;;;18.85;60.23;101398.88;105974;1276;22672;-80
2022/08/09 04:25:22;;;;;;;5.30;2.70;;;;;;;18.85;60.34;101398.70;106218;1271;23003;-77
2022/08/09 04:27:49;;;;;;;5.00;2.60;;;;;;;18.83;60.46;101397.66;106261;1274;22773;-83
2022/08/09 04:30:18;;;;;;;7.60;2.70;;;;;;;18.81;60.53;101403.09;106145;1271;22564;-75
2022/08/09 04:32:49;;;;;;;6.30;2.60;;;;;;;18.79;60.66;101398.86;106362;1271;22550;-71
2022/08/09 04:35:18;;;;;;;4.50;2.90;;;;;;;18.79;60.61;101397.44;106349;1271;22568;-70
2022/08/09 04:37:48;;;;;;;7.00;3.10;;;;;;;18.78;60.63;101397.09;106323;1271;24278;-76
2022/08/09 04:40:15;;;;;;;5.40;3.00;;;;;;;18.77;60.81;101395.33;106306;1271;25319;-71
2022/08/09 04:43:02;;;;;;;8.30;2.90;;;;;;;18.77;60.96;101395.86;106242;1271;22553;-72
2022/08/09 04:45:31;;;;;;;6.20;2.90;;;;;;;18.77;60.82;101398.55;106308;1271;25220;-70
2022/08/09 04:48:18;;;;;;;13.70;3.10;;;;;;;18.75;60.81;101403.08;106226;1271;22700;-69
2022/08/09 04:50:45;;;;;;;9.20;3.30;;;;;;;18.72;60.98;101405.98;106336;1271;22528;-71
2022/08/09 04:53:15;;;;;;;8.10;3.10;;;;;;;18.73;61.16;101408.31;106121;1271;24211;-80
2022/08/09 04:55:43;;;;;;;8.40;3.30;;;;;;;18.73;61.20;101411.13;106190;1271;22547;-73
2022/08/09 04:58:28;;;;;;;7.00;3.10;;;;;;;18.77;61.16;101409.42;106354;1271;24286;-74
2022/08/09 05:00:58;;;;;;;5.10;2.50;;;;;;;18.81;61.15;101410.39;106321;1271;25730;-75
2022/08/09 05:03:26;;;;;;;5.90;2.80;;;;;;;18.84;61.10;101412.82;106374;1271;22518;-74
2022/08/09 05:06:09;;;;;;;4.60;3.00;;;;;;;18.87;60.93;101413.27;106490;1271;24256;-72
2022/08/09 05:08:37;;;;;;;6.30;3.50;;;;;;;18.85;60.75;101415.11;106610;1271;25462;-73
2022/08/09 05:11:13;;;;;;;6.50;3.40;;;;;;;18.84;60.74;101416.91;106264;1271;25547;-74
2022/08/09 05:13:41;;;;;;;3.80;2.80;;;;;;;18.83;60.65;101416.05;106541;1271;25409;-73
2022/08/09 05:16:08;;;;;;;7.90;2.70;;;;;;;18.85;60.77;101417.97;106337;1271;22522;-73
2022/08/09 05:18:37;;;;;;;7.10;2.90;;;;;;;18.87;60.71;101413.80;106290;1271;25297;-74
2022/08/09 05:21:24;;;;;;;4.30;2.50;;;;;;;18.96;60.68;101420.35;106202;1271;22573;-72
2022/08/09 05:23:57;;;;;;;6.00;3.00;;;;;;;19.02;60.40;101423.58;106240;1270;22928;-72
2022/08/09 05:26:32;;;;;;;20.90;3.10;;;;;;;19.04;60.37;101427.08;106487;1271;25395;-71
2022/08/09 05:29:18;;;;;;;5.30;2.80;;;;;;;19.08;60.41;101429.64;106433;1271;25333;-72
2022/08/09 05:31:49;;;;;;;4.90;2.80;;;;;;;19.11;60.22;101427.11;106147;1271;22531;-70
2022/08/09 05:34:28;;;;;;;8.60;3.20;;;;;;;19.16;60.41;101427.48;106382;1270;25501;-72
2022/08/09 05:37:03;;;;;;;5.80;3.10;;;;;;;19.22;60.02;101429.47;106092;1271;25276;-72
2022/08/09 05:39:37;;;;;;;6.40;2.50;;;;;;;19.27;60.05;101428.08;106344;1271;22558;-73
2022/08/09 05:42:12;;;;;;;8.00;3.50;;;;;;;19.32;60.00;101428.64;105815;1277;25241;-74
2022/08/09 05:44:52;;;;;;;7.90;3.20;;;;;;;19.38;60.10;101429.71;105930;1277;25393;-74
2022/08/09 05:47:21;;;;;;;4.80;2.70;;;;;;;19.42;59.75;101430.85;105835;1277;25238;-70
2022/08/09 05:49:54;;;;;;;8.60;3.40;;;;;;;19.46;59.68;101430.02;105832;1277;22557;-78
2022/08/09 05:52:42;;;;;;;10.10;3.30;;;;;;;19.50;59.44;101433.64;106229;1277;24135;-73
2022/08/09 05:55:11;;;;;;;5.20;2.70;;;;;;;19.53;59.52;101434.28;105946;1274;24228;-74
2022/08/09 05:57:50;;;;;;;8.50;2.80;;;;;;;19.57;59.42;101430.42;105861;1275;25332;-73
2022/08/09 06:00:26;;;;;;;5.10;3.00;;;;;;;19.61;59.49;101432.79;105594;1277;24246;-73
2022/08/09 06:03:00;;;;;;;5.60;2.40;;;;;;;19.65;59.45;101435.17;105919;1274;25693;-72
2022/08/09 06:05:29;;;;;;;7.80;3.20;;;;;;;19.66;59.42;101436.21;105883;1276;22973;-72
2022/08/09 06:08:16;;;;;;;9.80;3.20;;;;;;;19.67;59.33;101437.05;106420;1271;22630;-72
2022/08/09 06:10:55;;;;;;;6.40;3.10;;;;;;;19.67;59.33;101438.31;106179;1271;22622;-74
2022/08/09 06:13:25;;;;;;;13.40;3.60;;;;;;;19.68;59.20;101440.61;106276;1271;25273;-71
2022/08/09 06:16:03;;;;;;;10.40;3.20;;;;;;;19.70;59.00;101441.63;106080;1271;25362;-72
2022/08/09 06:18:32;;;;;;;8.50;3.10;;;;;;;19.71;58.86;101443.73;106105;1271;25407;-72
2022/08/09 06:21:00;;;;;;;14.30;3.30;;;;;;;19.73;58.76;101444.23;106210;1271;25286;-70
2022/08/09 06:23:31;;;;;;;12.30;3.00;;;;;;;19.74;58.70;101446.15;106463;1271;22559;-72
2022/08/09 06:26:21;;;;;;;5.50;2.70;;;;;;;19.75;58.90;101443.44;106241;1271;25429;-73
2022/08/09 06:28:55;;;;;;;;;;;;;;;19.78;58.96;101438.34;106037;1271;23982;-70
2022/08/09 06:31:28;;;;;;;14.00;3.60;;;;;;;19.82;58.94;101442.51;106090;1271;24375;-75
2022/08/09 06:33:57;;;;;;;6.80;2.80;;;;;;;19.86;58.81;101443.47;106180;1271;26490;-69
2022/08/09 06:36:24;;;;;;;6.50;2.80;;;;;;;19.88;59.00;101444.13;106030;1271;22802;-70
2022/08/09 06:38:56;;;;;;;10.00;3.10;;;;;;;19.90;58.79;101449.05;105974;1271;25203;-70
2022/08/09 06:41:24;;;;;;;5.60;2.80;;;;;;;19.94;58.60;101449.28;106054;1271;22542;-70
2022/08/09 06:44:13;;;;;;;9.40;3.50;;;;;;;19.97;58.73;101451.34;106063;1271;25521;-68
2022/08/09 06:46:44;;;;;;;10.30;3.10;;;;;;;20.03;58.83;101450.29;106205;1271;24394;-74
2022/08/09 06:49:11;;;;;;;4.90;3.10;;;;;;;20.10;58.64;101450.27;106300;1271;22681;-72
2022/08/09 06:51:48;;;;;;;9.50;3.20;;;;;;;20.13;58.45;101449.80;106301;1271;23926;-73
2022/08/09 06:54:16;;;;;;;15.10;3.30;;;;;;;20.18;58.32;101449.44;106279;1271;25290;-74
2022/08/09 06:56:46;;;;;;;8.10;2.70;;;;;;;20.24;58.17;101449.08;106330;1271;25385;-72
2022/08/09 06:59:13;;;;;;;8.10;2.70;;;;;;;20.32;58.23;101448.27;106101;1274;25327;-70
2022/08/09 07:01:59;;;;;;;9.50;3.40;;;;;;;20.40;58.19;101450.52;105843;1275;22532;-71
2022/08/09 07:04:31;;;;;;;7.20;2.90;;;;;;;20.49;58.30;101451.64;105882;1277;24265;-74
2022/08/09 07:06:58;;;;;;;11.20;3.20;;;;;;;20.56;58.40;101454.29;105609;1280;23976;-70
2022/08/09 07:09:27;;;;;;;8.30;3.20;;;;;;;20.65;58.19;101452.73;105374;1280;25329;-71
2022/08/09 07:12:15;;;;;;;6.70;2.80;;;;;;;20.75;57.94;101452.57;105636;1280;23067;-72
2022/08/09 07:14:45;;;;;;;6.50;2.60;;;;;;;20.80;57.83;101454.19;105466;1280;25350;-70
2022/08/09 07:17:18;;;;;;;8.90;3.50;;;;;;;20.86;58.03;101454.87;105791;1276;25365;-72
2022/08/09 07:19:47;;;;;;;6.40;3.10;;;;;;;20.92;58.02;101457.00;105678;1277;25291;-72
2022/08/09 07:22:24;;;;;;;10.70;3.80;;;;;;;21.00;58.33;101457.27;105847;1277;22467;-73
2022/08/09 07:25:04;;;;;;;8.00;3.20;;;;;;;21.09;57.95;101457.48;106412;1271;22953;-69
2022/08/09 07:27:37;;;;;;;5.30;3.30;;;;;;;21.15;57.71;101458.52;106455;1276;25231;-74
2022/08/09 07:30:19;;;;;;;12.10;3.30;;;;;;;21.24;57.72;101461.96;106620;1273;25224;-72
2022/08/09 07:32:51;;;;;;;8.80;2.90;;;;;;;21.32;57.18;101465.59;107024;1276;22555;-72
2022/08/09 07:35:18;;;;;;;9.50;4.00;;;;;;;21.40;56.75;101468.55;106285;1281;22907;-72
2022/08/09 07:37:45;;;;;;;11.60;3.50;;;;;;;21.46;56.75;101471.20;106514;1276;22554;-71
2022/08/09 07:40:17;;;;;;;10.10;3.60;;;;;;;21.52;56.23;101470.05;106217;1277;25391;-72
2022/08/09 07:42:58;;;;;;;10.10;3.40;;;;;;;21.57;56.29;101472.73;105980;1276;24304;-74
2022/08/09 07:45:27;;;;;;;9.70;3.60;;;;;;;21.64;56.39;101474.30;106100;1271;22622;-69
2022/08/09 07:48:08;;;;;;;15.00;4.00;;;;;;;21.72;56.35;101473.23;106233;1271;24274;-70
2022/08/09 07:50:59;;;;;;;11.70;4.00;;;;;;;21.82;55.95;101468.07;106094;1271;22552;-68
2022/08/09 07:53:48;;;;;;;12.80;3.50;;;;;;;21.87;55.43;101466.26;106341;1271;22550;-70
2022/08/09 07:56:35;;;;;;;7.70;3.20;;;;;;;21.92;54.49;101466.04;106249;1271;25708;-70
2022/08/09 07:59:06;;;;;;;15.20;4.30;;;;;;;21.97;54.52;101466.23;106181;1271;26493;-71
2022/08/09 08:01:41;;;;;;;13.20;3.50;;;;;;;22.05;54.24;101471.81;106223;1271;22536;-70
2022/08/09 08:04:18;;;;;;;7.60;3.40;;;;;;;22.14;54.36;101471.63;106093;1271;24276;-76
2022/08/09 08:06:57;;;;;;;10.50;3.40;;;;;;;22.24;54.66;101478.20;106214;1271;26592;-76
2022/08/09 08:09:35;;;;;;;9.00;3.70;;;;;;;22.36;54.57;101475.20;106445;1271;24061;-83
2022/08/09 08:12:18;;;;;;;12.70;3.80;;;;;;;22.50;54.47;101476.96;105951;1276;25241;-72
2022/08/09 08:14:54;;;;;;;8.00;3.70;;;;;;;22.60;54.11;101477.83;105859;1277;23928;-74
2022/08/09 08:17:23;;;;;;;13.20;4.20;;;;;;;22.69;53.52;101477.10;105766;1276;26762;-74
2022/08/09 08:20:10;;;;;;;9.40;3.70;;;;;;;22.78;53.06;101476.92;105791;1277;23953;-74
2022/08/09 08:22:39;;;;;;;7.70;3.00;;;;;;;22.82;52.85;101476.18;105612;1277;23037;-72
2022/08/09 08:25:08;;;;;;;6.10;3.10;;;;;;;22.87;52.35;101480.10;105850;1277;24091;-73
2022/08/09 08:27:40;;;;;;;5.80;3.10;;;;;;;22.92;52.54;101478.64;105511;1281;22585;-72
2022/08/09 08:30:12;;;;;;;7.50;2.60;;;;;;;23.06;52.45;101480.54;105425;1279;24387;-74
2022/08/09 08:32:40;;;;;;;8.20;2.70;;;;;;;23.15;52.47;101479.27;106130;1277;24217;-71
2022/08/09 08:35:20;;;;;;;7.60;2.90;;;;;;;23.24;51.53;101479.93;105871;1277;22490;-70
2022/08/09 08:37:49;;;;;;;9.30;2.60;;;;;;;23.29;51.21;101477.70;106225;1279;22695;-71
2022/08/09 08:40:34;;;;;;;4.70;2.60;;;;;;;23.37;50.64;101480.95;105784;1277;22694;-72
2022/08/09 08:43:03;;;;;;;4.60;2.60;;;;;;;23.42;50.51;101479.13;106407;1277;22562;-70
2022/08/09 08:45:50;;;;;;;5.50;2.30;;;;;;;23.52;50.90;101480.68;106063;1271;24935;-71
2022/08/09 08:48:36;;;;;;;7.80;2.80;;;;;;;23.65;50.48;101480.77;106057;1277;25364;-70
2022/08/09 08:51:17;;;;;;;4.60;2.10;;;;;;;23.77;50.57;101481.50;105711;1283;25309;-72
2022/08/09 08:53:44;;;;;;;9.10;2.60;;;;;;;23.83;50.01;101479.58;105441;1280;24364;-71
2022/08/09 08:56:36;;;;;;;6.80;2.50;;;;;;;23.88;49.47;101478.25;105581;1280;23925;-73
2022/08/09 08:59:08;;;;;;;6.30;2.70;;;;;;;23.93;49.04;101479.47;105847;1281;23162;-70
2022/08/09 09:01:48;;;;;;;5.10;2.10;;;;;;;23.98;48.82;101477.60;105060;1285;24004;-73
2022/08/09 09:04:28;;;;;;;5.00;2.50;;;;;;;24.00;48.94;101478.39;105154;1285;22715;-70
2022/08/09 09:07:08;;;;;;;3.90;2.30;;;;;;;24.02;48.79;101475.45;105112;1282;22647;-72
2022/08/09 09:09:41;;;;;;;5.00;2.10;;;;;;;24.04;48.76;101475.70;105646;1277;24285;-73
2022/08/09 09:12:30;;;;;;;5.50;2.00;;;;;;;24.04;48.64;101478.05;105704;1281;22535;-74
2022/08/09 09:15:02;;;;;;;2.30;1.70;;;;;;;24.06;48.45;101476.33;105299;1284;26523;-72
2022/08/09 09:17:33;;;;;;;3.60;2.10;;;;;;;24.13;48.49;101474.02;105309;1283;24374;-71
2022/08/09 09:20:18;;;;;;;3.80;2.00;;;;;;;24.22;48.36;101473.77;105001;1282;25923;-74
2022/08/09 09:22:58;;;;;;;7.10;2.10;;;;;;;24.27;47.89;101473.35;105390;1282;25357;-72
2022/08/09 09:25:31;;;;;;;4.10;2.20;;;;;;;24.29;47.88;101475.41;105345;1284;24069;-72
2022/08/09 09:28:19;;;;;;;3.20;1.80;;;;;;;24.40;47.86;101475.62;105559;1282;25483;-74
2022/08/09 09:31:12;;;;;;;4.30;2.00;;;;;;;24.47;47.37;101469.83;105372;1284;22911;-74
2022/08/09 09:34:19;;;;;;;3.40;1.90;;;;;;;24.58;46.57;101466.27;105548;1278;24215;-76
2022/08/09 09:36:49;;;;;;;2.40;2.00;;;;;;;24.64;46.42;101465.95;105957;1278;25470;-72
2022/08/09 09:39:26;;;;;;;3.40;2.20;;;;;;;24.76;46.24;101470.73;106148;1271;25306;-69
2022/08/09 09:42:26;;;;;;;3.10;1.70;;;;;;;24.76;45.35;101469.83;106162;1271;22626;-70
2022/08/09 09:45:04;;;;;;;3.90;2.10;;;;;;;24.73;45.82;101468.52;106192;1271;24672;-72
2022/08/09 09:47:34;;;;;;;4.70;1.70;;;;;;;24.79;45.84;101468.43;105850;1277;25365;-74
2022/08/09 09:50:21;;;;;;;1.90;1.70;;;;;;;24.84;44.97;101468.33;105813;1277;26532;-69
2022/08/09 09:52:53;;;;;;;3.90;1.70;;;;;;;24.84;44.98;101468.48;105758;1277;24124;-73
2022/08/09 09:55:22;;;;;;;3.90;2.00;;;;;;;24.91;44.77;101468.91;105888;1277;26509;-72
2022/08/09 09:57:59;;;;;;;2.00;1.80;;;;;;;24.91;44.00;101468.15;106028;1278;22599;-75
2022/08/09 10:00:50;;;;;;;3.70;2.20;;;;;;;24.89;44.15;101466.30;105926;1277;25486;-75
2022/08/09 10:03:48;;;;;;;3.70;1.80;;;;;;;24.93;44.17;101469.52;105840;1277;24091;-73
2022/08/09 10:06:24;;;;;;;3.40;1.90;;;;;;;24.96;44.43;101468.27;105859;1278;22541;-75
2022/08/09 10:09:03;;;;;;;3.10;1.60;;;;;;;25.02;44.24;101461.83;105759;1279;23193;-71
2022/08/09 10:11:57;;;;;;;2.90;2.00;;;;;;;25.13;44.20;101463.97;105763;1277;24202;-72
2022/08/09 10:14:45;;;;;;;3.30;1.90;;;;;;;25.22;44.16;101460.92;105976;1277;25293;-78
2022/08/09 10:17:15;;;;;;;1.70;1.50;;;;;;;25.21;43.53;101457.41;105523;1281;25932;-71
2022/08/09 10:20:21;;;;;;;4.10;1.90;;;;;;;25.13;43.53;101459.45;105660;1284;22542;-72
2022/08/09 10:23:21;;;;;;;2.80;1.80;;;;;;;25.13;43.45;101464.35;105430;1281;25282;-73
2022/08/09 10:25:50;;;;;;;9.40;1.70;;;;;;;25.14;43.61;101461.23;105541;1281;26721;-72
2022/08/09 10:28:37;;;;;;;4.00;2.20;;;;;;;25.16;43.81;101459.64;105379;1281;25248;-72
2022/08/09 10:31:07;;;;;;;6.10;2.50;;;;;;;25.24;43.62;101462.27;105686;1276;24258;-73
2022/08/09 10:33:53;;;;;;;2.00;1.70;;;;;;;25.36;43.75;101463.43;105909;1274;22860;-71
2022/08/09 10:36:42;;;;;;;3.20;1.80;;;;;;;25.39;42.74;101458.23;105974;1271;22531;-71
2022/08/09 10:39:11;;;;;;;2.30;1.80;;;;;;;25.40;42.68;101459.26;106232;1271;23370;-73
2022/08/09 10:41:44;;;;;;;3.00;1.80;;;;;;;25.44;42.66;101460.63;105730;1277;22769;-71
2022/08/09 10:44:20;;;;;;;3.90;1.50;;;;;;;25.42;42.24;101459.69;105861;1278;26659;-71
2022/08/09 10:47:22;;;;;;;4.60;2.00;;;;;;;25.47;42.96;101458.70;105917;1278;22572;-72
2022/08/09 10:50:21;;;;;;;3.00;2.10;;;;;;;25.56;43.17;101455.70;105706;1277;22580;-72
2022/08/09 10:53:18;;;;;;;3.80;2.10;;;;;;;25.64;42.98;101456.16;105930;1278;22549;-70
2022/08/09 10:55:48;;;;;;;2.50;1.80;;;;;;;25.71;43.27;101455.59;105863;1277;25240;-82
2022/08/09 10:58:33;;;;;;;3.70;2.50;;;;;;;25.81;43.50;101451.47;105868;1278;24224;-73
2022/08/09 11:01:04;;;;;;;3.80;2.00;;;;;;;25.91;42.89;101449.24;106321;1271;25229;-75
2022/08/09 11:04:19;;;;;;;4.00;1.90;;;;;;;26.00;43.01;101447.13;106416;1271;24090;-72
2022/08/09 11:06:57;;;;;;;;;;;;;;;26.07;42.93;101444.22;105870;1278;25229;-71
2022/08/09 11:09:37;;;;;;;5.30;1.90;;;;;;;26.10;42.18;101444.55;105842;1277;24477;-73
2022/08/09 11:12:17;;;;;;;2.10;2.00;;;;;;;26.16;41.64;101442.20;106022;1277;24260;-75
2022/08/09 11:14:53;;;;;;;2.30;1.80;;;;;;;26.27;41.70;101445.23;106013;1277;22496;-72
2022/08/09 11:17:25;;;;;;;3.70;1.80;;;;;;;26.37;41.58;101439.62;105782;1278;22684;-76
2022/08/09 11:19:53;;;;;;;2.70;1.70;;;;;;;26.44;41.21;101437.55;105912;1277;23476;-72
2022/08/09 11:22:40;;;;;;;6.40;1.80;;;;;;;26.60;40.92;101437.65;105874;1277;25222;-74
2022/08/09 11:25:11;;;;;;;2.60;2.00;;;;;;;26.88;40.66;101435.11;105961;1277;22655;-75
2022/08/09 11:27:43;;;;;;;4.30;2.00;;;;;;;27.19;40.20;101428.84;106006;1277;22526;-73
2022/08/09 11:30:34;;;;;;;3.20;1.70;;;;;;;27.62;39.58;101434.14;106010;1278;25238;-73
2022/08/09 11:33:23;;;;;;;3.80;2.00;;;;;;;27.95;39.57;101431.48;106337;1271;25321;-70
2022/08/09 11:35:59;;;;;;;5.10;2.30;;;;;;;28.32;38.80;101428.48;106529;1271;22594;-73
2022/08/09 11:38:27;;;;;;;1.90;1.50;;;;;;;28.63;38.00;101420.21;106455;1271;22590;-72
2022/08/09 11:41:10;;;;;;;6.40;2.00;;;;;;;28.80;37.52;101422.14;106454;1271;22578;-72
2022/08/09 11:43:51;;;;;;;2.20;1.80;;;;;;;28.68;36.77;101424.61;106756;1271;26653;-73
2022/08/09 11:46:18;;;;;;;2.20;1.80;;;;;;;28.54;36.96;101421.94;106238;1271;22743;-74
2022/08/09 11:49:00;;;;;;;4.40;1.90;;;;;;;28.54;36.77;101418.64;106284;1271;25380;-73
2022/08/09 11:52:03;;;;;;;3.20;1.90;;;;;;;28.59;36.45;101417.91;106340;1271;25408;-73
2022/08/09 11:55:32;;;;;;;5.40;2.50;;;;;;;28.74;36.22;101418.20;106351;1271;25457;-74
2022/08/09 11:58:18;;;;;;;2.70;1.70;;;;;;;28.95;35.46;101414.73;106493;1271;25410;-74
2022/08/09 12:01:07;;;;;;;6.60;1.80;;;;;;;29.21;35.00;101419.09;106024;1278;25412;-72
2022/08/09 12:04:00;;;;;;;2.10;1.90;;;;;;;29.43;34.36;101414.81;105996;1277;24276;-78
2022/08/09 12:06:27;;;;;;;2.20;1.70;;;;;;;29.56;33.40;101413.29;105688;1278;22549;-74
2022/08/09 12:09:00;;;;;;;2.40;1.60;;;;;;;29.56;32.93;101409.86;105812;1277;24312;-72